Strona główna
METAR-TAF:

METAR-TAF

Lotnisko :

Port lotniczy Surabaja-Juanda

Gerbangkertosusila, Indonezja

Szerokość geograficzna: 07-22-47S, Długość geograficzna: 112-47-13E, wysokość: 3 m

METAR: brakujący

czas: 18:14 (11:14 UTC)

Prognoza

Raport powstał 6 godziny i 14 minut temu, godzina 05:00 UTC
Prognoza ważna od 24 godzina 06 UTC do 25 godzina 06 UTC
Wiatr 10 kt od wschód
Widzialność 10 km lub więcej
Mało chmury na wysokości 2000 ft
Stopniowe zmiany
od 24 godzina 16 UTC do 24 godzina 18 UTC
Wiatr 5 kt od zachodnio-południowy zachód
Widzialność: 5000 m
zmętnienie
Stopniowe zmiany
od 25 godzina 00 UTC do 25 godzina 02 UTC
Wiatr 10 kt od wschodnio-południowy wschód
Widzialność 10 km lub więcej

TAF: WARR 240500Z 2406/2506 10010KT 9999 FEW020 BECMG 2416/2418 24005KT 5000 HZ BECMG 2500/2502 12010KT 9999 NSW

Obserwacja i prognoza pogody dla ponad 4000 lotnisk (raport METAR i TAF).

Dostępne stacje oznaczono żółtymi i czerwonymi punktami na mapie.

Najedź kursorem aby zobaczyć nazwę stacji.

Kliknij aby zobaczyć obserwacje i prognozy pogody.

Aby zmienić mapę: kliknij na zielony przycisk z czarnym krzyżykiem, aby powiększyć; na zielony przycisk z myślnikiem, aby pomniejszyć; na zielone strzałki, aby przejść do map sąsiednich.


METAR-TAF: